createdAt,value
2022-11-30T00:00:58.509Z,102131.53
2022-11-30T00:03:26.132Z,102130.59
2022-11-30T00:05:53.695Z,102140.59
2022-11-30T00:08:21.282Z,102137.56
2022-11-30T00:10:48.926Z,102132.56
2022-11-30T00:13:16.282Z,102135.47
2022-11-30T00:15:43.680Z,102140.72
2022-11-30T00:18:11.189Z,102131.50
2022-11-30T00:20:38.685Z,102130.53
2022-11-30T00:23:06.237Z,102126.19
2022-11-30T00:25:33.561Z,102131.06
2022-11-30T00:28:01.799Z,102123.63
2022-11-30T00:30:29.471Z,102125.34
2022-11-30T00:32:57.858Z,102127.69
2022-11-30T00:35:25.369Z,102133.84
2022-11-30T00:37:52.777Z,102137.53
2022-11-30T00:40:20.360Z,102134.97
2022-11-30T00:42:47.803Z,102125.34
2022-11-30T00:45:15.384Z,102128.59
2022-11-30T00:47:43.509Z,102119.25
2022-11-30T00:50:11.862Z,102121.31
2022-11-30T00:52:42.376Z,102113.00
2022-11-30T00:55:10.341Z,102109.34
2022-11-30T00:57:37.655Z,102100.94
2022-11-30T01:00:05.235Z,102094.84
2022-11-30T01:02:32.734Z,102095.91
2022-11-30T01:05:00.370Z,102104.25
2022-11-30T01:07:27.912Z,102107.13
2022-11-30T01:09:55.870Z,102112.34
2022-11-30T01:12:24.347Z,102110.56
2022-11-30T01:14:51.620Z,102109.81
2022-11-30T01:17:19.363Z,102116.91
2022-11-30T01:19:46.767Z,102122.03
2022-11-30T01:22:14.069Z,102117.22
2022-11-30T01:24:41.351Z,102115.78
2022-11-30T01:27:08.842Z,102119.28
2022-11-30T01:29:36.190Z,102120.69
2022-11-30T01:32:03.830Z,102117.66
2022-11-30T01:34:31.162Z,102118.72
2022-11-30T01:36:58.524Z,102122.53
2022-11-30T01:39:25.980Z,102121.47
2022-11-30T01:41:53.904Z,102130.19
2022-11-30T01:44:27.147Z,102123.47
2022-11-30T01:47:04.171Z,102125.66
2022-11-30T01:49:31.516Z,102128.91
2022-11-30T01:52:00.875Z,102121.75
2022-11-30T01:54:39.049Z,102122.63
2022-11-30T01:57:12.778Z,102102.72
2022-11-30T01:59:40.107Z,102122.16
2022-11-30T02:02:07.454Z,102121.25
2022-11-30T02:04:35.558Z,102118.38
2022-11-30T02:07:03.436Z,102117.00
2022-11-30T02:09:31.623Z,102113.28
2022-11-30T02:11:59.181Z,102126.34
2022-11-30T02:14:33.189Z,102121.25
2022-11-30T02:17:30.316Z,102120.66
2022-11-30T02:20:30.292Z,102113.19
2022-11-30T02:23:04.077Z,102115.91
2022-11-30T02:25:31.520Z,102120.38
2022-11-30T02:27:58.931Z,102126.53
2022-11-30T02:30:26.815Z,102129.31
2022-11-30T02:32:55.449Z,102132.63
2022-11-30T02:35:30.669Z,102132.72
2022-11-30T02:37:59.445Z,102129.13
2022-11-30T02:40:26.871Z,102123.63
2022-11-30T02:42:54.511Z,102128.34
2022-11-30T02:45:24.277Z,102124.81
2022-11-30T02:48:11.887Z,102123.94
2022-11-30T02:50:44.779Z,102123.91
2022-11-30T02:53:12.212Z,102118.34
2022-11-30T02:55:39.588Z,102124.00
2022-11-30T02:58:06.985Z,102112.34
2022-11-30T03:00:34.478Z,102110.06
2022-11-30T03:03:02.345Z,102116.44
2022-11-30T03:05:29.833Z,102105.31
2022-11-30T03:07:57.684Z,102117.53
2022-11-30T03:10:25.574Z,102108.03
2022-11-30T03:12:52.992Z,102100.97
2022-11-30T03:15:20.352Z,102107.88
2022-11-30T03:17:47.933Z,102108.69
2022-11-30T03:20:15.316Z,102107.03
2022-11-30T03:22:42.708Z,102112.09
2022-11-30T03:25:10.366Z,102102.75
2022-11-30T03:27:37.715Z,102105.81
2022-11-30T03:30:05.899Z,102101.91
2022-11-30T03:32:34.474Z,102108.94
2022-11-30T03:35:01.846Z,102106.00
2022-11-30T03:37:29.361Z,102102.69
2022-11-30T03:39:58.519Z,102113.97
2022-11-30T03:42:27.338Z,102109.53
2022-11-30T03:44:54.747Z,102113.94
2022-11-30T03:47:22.228Z,102109.03
2022-11-30T03:49:49.911Z,102110.72
2022-11-30T03:52:17.339Z,102110.53
2022-11-30T03:54:45.064Z,102112.34
2022-11-30T03:57:12.942Z,102104.06
2022-11-30T03:59:40.474Z,102110.59
2022-11-30T04:02:08.100Z,102120.53
2022-11-30T04:04:35.840Z,102123.53
2022-11-30T04:07:03.214Z,102112.75
2022-11-30T04:09:31.281Z,102114.97
2022-11-30T04:11:59.239Z,102109.28
2022-11-30T04:14:26.696Z,102092.19
2022-11-30T04:16:54.036Z,102099.91
2022-11-30T04:19:21.346Z,102086.50
2022-11-30T04:21:48.808Z,102079.72
2022-11-30T04:24:16.135Z,102096.47
2022-11-30T04:26:43.885Z,102090.75
2022-11-30T04:29:11.954Z,102087.38
2022-11-30T04:31:39.535Z,102093.13
2022-11-30T04:34:07.166Z,102095.34
2022-11-30T04:36:34.874Z,102086.84
2022-11-30T04:39:02.420Z,102085.75
2022-11-30T04:41:30.553Z,102091.72
2022-11-30T04:43:57.822Z,102081.41
2022-11-30T04:46:25.381Z,102082.88
2022-11-30T04:48:52.862Z,102083.47
2022-11-30T04:51:20.316Z,102076.06
2022-11-30T04:53:47.642Z,102079.53
2022-11-30T04:56:15.025Z,102084.13
2022-11-30T04:58:42.363Z,102090.56
2022-11-30T05:01:09.938Z,102088.50
2022-11-30T05:03:37.577Z,102094.25
2022-11-30T05:06:04.994Z,102098.06
2022-11-30T05:08:32.684Z,102090.91
2022-11-30T05:11:02.028Z,102089.31
2022-11-30T05:13:29.973Z,102098.81
2022-11-30T05:15:57.444Z,102096.75
2022-11-30T05:18:24.888Z,102107.28
2022-11-30T05:20:52.924Z,102107.16
2022-11-30T05:23:20.628Z,102109.97
2022-11-30T05:25:48.201Z,102112.50
2022-11-30T05:28:15.703Z,102117.00
2022-11-30T05:30:43.211Z,102124.97
2022-11-30T05:33:10.906Z,102120.41
2022-11-30T05:35:38.204Z,102115.16
2022-11-30T05:38:05.625Z,102118.81
2022-11-30T05:40:33.782Z,102126.03
2022-11-30T05:43:01.920Z,102117.53
2022-11-30T05:45:29.468Z,102108.88
2022-11-30T05:47:56.912Z,102119.78
2022-11-30T05:50:24.281Z,102108.56
2022-11-30T05:52:58.321Z,102120.75
2022-11-30T05:55:25.738Z,102117.69
2022-11-30T05:57:53.335Z,102128.19
2022-11-30T06:00:21.097Z,102120.06
2022-11-30T06:02:48.760Z,102124.84
2022-11-30T06:05:16.271Z,102114.22
2022-11-30T06:07:43.816Z,102119.53
2022-11-30T06:10:11.605Z,102112.53
2022-11-30T06:12:39.037Z,102114.94
2022-11-30T06:15:06.787Z,102137.38
2022-11-30T06:17:34.531Z,102131.63
2022-11-30T06:20:01.955Z,102116.69
2022-11-30T06:22:29.750Z,102120.69
2022-11-30T06:24:57.232Z,102122.28
2022-11-30T06:27:24.662Z,102124.91
2022-11-30T06:29:53.435Z,102125.72
2022-11-30T06:32:20.896Z,102125.91
2022-11-30T06:34:48.443Z,102124.78
2022-11-30T06:37:16.024Z,102124.56
2022-11-30T06:40:05.420Z,102139.59
2022-11-30T06:42:31.418Z,102129.38
2022-11-30T06:44:58.985Z,102140.78
2022-11-30T06:47:28.218Z,102133.50
2022-11-30T06:49:55.588Z,102134.66
2022-11-30T06:52:23.059Z,102137.75
2022-11-30T16:31:36.676Z,102067.91
2022-11-30T16:34:04.264Z,102074.25
2022-11-30T16:36:33.616Z,102067.03
2022-11-30T16:39:01.013Z,102076.75
2022-11-30T16:41:28.930Z,102080.59
2022-11-30T16:43:56.456Z,102076.00
2022-11-30T16:46:24.565Z,102085.84
2022-11-30T16:48:51.959Z,102088.81
2022-11-30T16:51:27.550Z,102087.44
2022-11-30T16:53:54.982Z,102079.00
2022-11-30T16:56:22.474Z,102077.19
2022-11-30T16:58:50.039Z,102085.28
2022-11-30T17:01:17.802Z,102073.78
2022-11-30T17:03:45.926Z,102074.50
2022-11-30T17:06:14.419Z,102074.72
2022-11-30T17:08:42.406Z,102078.38
2022-11-30T17:11:14.188Z,102081.00
2022-11-30T17:13:42.534Z,102083.75
2022-11-30T17:16:10.331Z,102084.34
2022-11-30T17:18:37.655Z,102080.91
2022-11-30T17:21:05.142Z,102093.56
2022-11-30T17:23:32.581Z,102084.09
2022-11-30T17:26:00.033Z,102087.31
2022-11-30T17:28:27.365Z,102087.53
2022-11-30T17:30:54.708Z,102097.78
2022-11-30T17:33:22.275Z,102092.91
2022-11-30T17:35:49.754Z,102097.38
2022-11-30T17:38:17.741Z,102096.59
2022-11-30T17:40:45.509Z,102098.34
2022-11-30T17:43:12.790Z,102101.53
2022-11-30T17:45:40.494Z,102096.53
2022-11-30T17:48:07.970Z,102104.75
2022-11-30T17:50:37.809Z,102102.41
2022-11-30T17:53:06.036Z,102095.66
2022-11-30T17:55:33.725Z,102097.78
2022-11-30T17:58:01.355Z,102097.63
2022-11-30T18:00:29.046Z,102095.84
2022-11-30T18:02:56.597Z,102090.84
2022-11-30T18:05:23.971Z,102097.16
2022-11-30T18:07:51.485Z,102090.72
2022-11-30T18:10:19.038Z,102091.91
2022-11-30T18:12:46.731Z,102095.97
2022-11-30T18:15:14.834Z,102092.38
2022-11-30T18:17:42.231Z,102091.34
2022-11-30T18:20:11.010Z,102094.19
2022-11-30T18:22:38.617Z,102097.03
2022-11-30T18:25:06.205Z,102102.84
2022-11-30T18:27:33.735Z,102100.97
2022-11-30T18:30:02.795Z,102110.38
2022-11-30T18:32:34.076Z,102107.16
2022-11-30T18:35:02.297Z,102115.69
2022-11-30T18:37:29.943Z,102110.44
2022-11-30T18:39:57.477Z,102129.97
2022-11-30T18:42:24.833Z,102121.53
2022-11-30T18:44:53.070Z,102130.13
2022-11-30T18:47:21.047Z,102132.31
2022-11-30T18:49:48.416Z,102140.34
2022-11-30T18:52:15.821Z,102126.06
2022-11-30T18:54:43.119Z,102137.94
2022-11-30T18:57:10.498Z,102148.97
2022-11-30T18:59:37.899Z,102150.44
2022-11-30T19:02:06.041Z,102148.66
2022-11-30T23:22:10.987Z,102206.88
2022-11-30T23:24:38.600Z,102205.75
2022-11-30T23:27:05.899Z,102201.41
2022-11-30T23:29:34.715Z,102202.00
2022-11-30T23:32:02.466Z,102205.56
2022-11-30T23:34:29.900Z,102206.56
2022-11-30T23:36:57.473Z,102208.03
2022-11-30T23:39:24.925Z,102209.19
2022-11-30T23:41:52.261Z,102215.25
2022-11-30T23:44:19.800Z,102210.19
2022-11-30T23:46:47.273Z,102219.94
2022-11-30T23:49:15.413Z,102224.69
2022-11-30T23:51:43.012Z,102225.03
2022-11-30T23:54:10.460Z,102226.44
2022-11-30T23:56:37.750Z,102227.75
2022-11-30T23:59:06.050Z,102224.19
